createdAt,value
2023-03-08T00:04:02.073Z,213748.00
2023-03-08T00:10:05.350Z,213667.00
2023-03-08T00:16:12.345Z,213603.00
2023-03-08T00:22:14.883Z,213509.00
2023-03-08T00:28:17.317Z,213481.00
2023-03-08T00:34:19.695Z,213461.00
2023-03-08T00:40:21.937Z,213453.00
2023-03-08T00:46:25.895Z,213447.00
2023-03-08T00:52:29.620Z,213461.00
2023-03-08T00:58:32.127Z,213417.00
2023-03-08T01:04:34.644Z,213370.00
2023-03-08T01:10:37.125Z,213344.00
2023-03-08T01:16:39.246Z,213322.00
2023-03-08T01:22:41.872Z,213308.00
2023-03-08T01:28:44.773Z,213308.00
2023-03-08T01:34:47.299Z,213292.00
2023-03-08T01:40:49.536Z,213240.00
2023-03-08T01:46:51.737Z,213200.00
2023-03-08T01:52:55.788Z,213198.00
2023-03-08T01:58:58.648Z,213184.00
2023-03-08T02:05:01.104Z,213103.00
2023-03-08T02:11:04.885Z,213061.00
2023-03-08T02:17:09.278Z,212981.00
2023-03-08T02:23:15.461Z,212869.00
2023-03-08T02:29:17.817Z,212856.00
2023-03-08T02:35:20.015Z,212816.00
2023-03-08T02:41:22.664Z,212794.00
2023-03-08T02:47:25.020Z,212714.00
2023-03-08T02:53:27.919Z,212672.00
2023-03-08T02:59:31.253Z,212596.00
2023-03-08T03:05:34.405Z,212549.00
2023-03-08T03:11:41.889Z,212480.00
2023-03-08T03:17:44.435Z,212468.00
2023-03-08T03:23:47.161Z,212468.00
2023-03-08T03:29:53.220Z,212427.00
2023-03-08T03:35:56.052Z,212441.00
2023-03-08T03:41:58.825Z,212468.00
2023-03-08T03:48:01.318Z,212521.00
2023-03-08T03:54:06.969Z,212577.00
2023-03-08T04:00:11.315Z,212588.00
2023-03-08T04:06:18.924Z,212521.00
2023-03-08T04:12:22.961Z,212480.00
2023-03-08T04:18:26.012Z,212441.00
2023-03-08T04:24:28.677Z,212407.00
2023-03-08T04:30:35.884Z,212379.00
2023-03-08T04:36:40.320Z,212357.00
2023-03-08T04:42:43.655Z,212371.00
2023-03-08T04:48:49.070Z,212385.00
2023-03-08T04:54:52.644Z,212385.00
2023-03-08T05:00:59.765Z,212493.00
2023-03-08T05:07:02.378Z,212638.00
2023-03-08T05:13:08.581Z,214745.00
2023-03-08T05:19:10.926Z,216210.00
2023-03-08T05:25:21.005Z,217732.00
2023-03-08T05:31:23.320Z,218338.00
2023-03-08T05:37:28.587Z,217532.00
2023-03-08T05:43:35.947Z,218401.00
2023-03-08T05:49:40.988Z,218953.00
2023-03-08T05:55:44.278Z,219782.00
2023-03-08T06:01:47.905Z,219782.00
2023-03-08T06:08:09.291Z,218310.00
2023-03-08T06:14:13.173Z,218208.00
2023-03-08T06:20:16.941Z,219032.00
2023-03-08T06:26:22.788Z,217050.00
2023-03-08T06:32:25.319Z,221296.00
2023-03-08T06:38:30.171Z,220479.00
2023-03-08T06:44:33.137Z,219422.00
2023-03-08T06:50:36.191Z,219343.00
2023-03-08T06:56:38.516Z,219927.00
2023-03-08T07:02:42.363Z,220218.00
2023-03-08T07:08:45.091Z,222508.00
2023-03-08T07:14:47.228Z,223940.00
2023-03-08T07:20:56.898Z,224481.00
2023-03-08T07:26:59.221Z,225315.00
2023-03-08T07:33:01.973Z,225588.00
2023-03-08T07:39:04.180Z,225642.00
2023-03-08T07:45:06.709Z,225883.00
2023-03-08T07:51:10.569Z,225376.00
2023-03-08T07:57:14.815Z,225073.00
2023-03-08T08:03:17.061Z,225293.00
2023-03-08T08:09:19.382Z,225051.00
2023-03-08T08:15:23.940Z,225338.00
2023-03-08T08:21:27.513Z,225223.00
2023-03-08T08:27:29.786Z,224697.00
2023-03-08T08:33:33.036Z,224503.00
2023-03-08T08:39:35.178Z,224016.00
2023-03-08T08:45:37.533Z,222656.00
2023-03-08T08:51:40.049Z,222737.00
2023-03-08T08:57:42.505Z,221706.00
2023-03-08T09:03:46.023Z,221858.00
2023-03-08T09:09:48.404Z,222351.00
2023-03-08T09:15:50.622Z,221524.00
2023-03-08T09:21:52.752Z,222074.00
2023-03-08T09:27:55.385Z,221397.00
2023-03-08T09:33:58.107Z,220697.00
2023-03-08T09:40:00.383Z,220667.00
2023-03-08T09:46:05.395Z,220182.00
2023-03-08T09:52:25.377Z,219733.00
2023-03-08T09:58:53.548Z,219422.00
2023-03-08T10:05:15.043Z,219269.00
2023-03-08T10:11:29.336Z,219199.00
2023-03-08T10:17:44.891Z,219534.00
2023-03-08T10:23:53.061Z,219550.00
2023-03-08T10:29:59.341Z,219550.00
2023-03-08T10:36:12.949Z,219452.00
2023-03-08T10:42:19.084Z,219782.00
2023-03-08T10:48:22.633Z,220565.00
2023-03-08T10:54:25.434Z,220114.00
2023-03-08T11:00:35.023Z,221046.00
2023-03-08T11:06:37.406Z,222472.00
2023-03-08T11:12:40.116Z,222819.00
2023-03-08T11:19:16.884Z,222470.00
2023-03-08T11:25:28.208Z,222640.00
2023-03-08T11:31:46.338Z,223655.00
2023-03-08T11:38:17.860Z,224046.00
2023-03-08T11:44:44.850Z,223747.00
2023-03-08T11:50:59.485Z,224503.00
2023-03-08T11:57:05.179Z,224871.00
2023-03-08T12:03:25.669Z,224293.00
2023-03-08T12:09:34.127Z,223814.00
2023-03-08T12:15:53.088Z,223628.00
2023-03-08T12:22:10.461Z,223655.00
2023-03-08T12:28:25.972Z,223240.00
2023-03-08T12:34:40.464Z,222951.00
2023-03-08T12:40:56.191Z,222074.00
2023-03-08T12:47:17.122Z,221646.00
2023-03-08T12:53:41.051Z,221478.00
2023-03-08T12:59:43.341Z,220565.00
2023-03-08T13:05:47.702Z,220819.00
2023-03-08T13:12:16.880Z,220689.00
2023-03-08T13:18:20.751Z,220332.00
2023-03-08T13:24:30.664Z,220718.00
2023-03-08T13:30:52.807Z,222351.00
2023-03-08T13:36:56.138Z,222074.00
2023-03-08T13:43:05.593Z,221046.00
2023-03-08T13:49:15.127Z,221025.00
2023-03-08T13:55:21.354Z,220101.00
2023-03-08T14:01:26.444Z,220136.00
2023-03-08T14:07:32.507Z,219782.00
2023-03-08T14:13:39.369Z,219572.00
2023-03-08T14:19:42.969Z,219660.00
2023-03-08T14:25:55.817Z,219521.00
2023-03-08T14:32:06.045Z,219357.00
2023-03-08T14:38:29.092Z,219097.00
2023-03-08T14:44:31.405Z,218980.00
2023-03-08T14:50:34.699Z,218918.00
2023-03-08T14:56:37.202Z,218781.00
2023-03-08T15:02:39.399Z,218660.00
2023-03-08T15:08:41.769Z,218595.00
2023-03-08T15:14:44.406Z,218488.00
2023-03-08T15:20:49.623Z,218423.00
2023-03-08T15:26:52.943Z,218367.00
2023-03-08T15:32:58.463Z,218272.00
2023-03-08T15:39:01.720Z,218188.00
2023-03-08T15:45:04.086Z,218086.00
2023-03-08T15:51:06.627Z,217959.00
2023-03-08T15:57:08.960Z,217897.00
2023-03-08T16:03:14.574Z,217801.00
2023-03-08T16:09:16.730Z,217724.00
2023-03-08T16:15:19.697Z,217612.00
2023-03-08T16:21:22.360Z,217504.00
2023-03-08T16:27:24.524Z,217433.00
2023-03-08T16:33:28.187Z,217311.00
2023-03-08T16:39:30.429Z,217311.00
2023-03-08T16:45:32.795Z,217235.00
2023-03-08T16:51:37.403Z,217213.00
2023-03-08T16:57:44.152Z,217107.00
2023-03-08T17:03:46.571Z,217036.00
2023-03-08T17:09:49.065Z,217030.00
2023-03-08T17:15:51.405Z,216964.00
2023-03-08T17:21:53.814Z,216928.00
2023-03-08T17:27:55.920Z,216860.00
2023-03-08T17:33:58.293Z,216761.00
2023-03-08T17:40:00.616Z,216705.00
2023-03-08T17:46:05.978Z,216613.00
2023-03-08T17:52:10.100Z,216529.00
2023-03-08T17:58:12.784Z,216535.00
2023-03-08T18:04:15.305Z,216549.00
2023-03-08T18:10:18.165Z,216593.00
2023-03-08T18:16:20.979Z,216613.00
2023-03-08T18:22:23.795Z,216593.00
2023-03-08T18:28:26.131Z,216620.00
2023-03-08T18:34:29.094Z,216626.00
2023-03-08T18:40:31.484Z,216577.00
2023-03-08T18:46:34.234Z,216593.00
2023-03-08T18:52:37.927Z,216529.00
2023-03-08T18:58:40.294Z,216464.00
2023-03-08T19:04:45.123Z,216472.00
2023-03-08T19:10:47.410Z,216464.00
2023-03-08T19:16:49.780Z,216386.00
2023-03-08T19:22:51.976Z,216288.00
2023-03-08T19:28:54.337Z,216232.00
2023-03-08T19:34:56.462Z,216163.00
2023-03-08T19:40:58.709Z,216086.00
2023-03-08T19:47:01.926Z,216086.00
2023-03-08T19:53:04.156Z,216086.00
2023-03-08T19:59:06.649Z,216133.00
2023-03-08T20:05:09.050Z,216345.00
2023-03-08T20:11:11.110Z,216521.00
2023-03-08T20:17:13.180Z,216563.00
2023-03-08T20:23:15.498Z,216507.00
2023-03-08T20:29:17.919Z,216450.00
2023-03-08T20:35:22.132Z,216339.00
2023-03-08T20:41:26.084Z,216268.00
2023-03-08T20:47:28.526Z,216191.00
2023-03-08T20:53:31.554Z,216133.00
2023-03-08T20:59:33.801Z,216078.00
2023-03-08T21:05:36.764Z,215979.00
2023-03-08T21:11:40.303Z,215819.00
2023-03-08T21:17:43.063Z,215748.00
2023-03-08T21:23:47.242Z,215615.00
2023-03-08T21:29:49.987Z,215510.00
2023-03-08T21:36:00.523Z,215391.00
2023-03-08T21:42:03.047Z,215261.00
2023-03-08T21:48:05.787Z,215239.00
2023-03-08T21:54:07.783Z,215273.00
2023-03-08T22:00:11.454Z,215289.00
2023-03-08T22:06:16.918Z,215349.00
2023-03-08T22:12:20.203Z,215329.00
2023-03-08T22:18:22.414Z,215295.00
2023-03-08T22:24:24.957Z,215281.00
2023-03-08T22:30:27.218Z,215329.00
2023-03-08T22:36:29.513Z,215273.00
2023-03-08T22:42:33.696Z,215253.00
2023-03-08T22:48:35.858Z,215225.00
2023-03-08T22:54:38.055Z,215188.00
2023-03-08T23:00:40.391Z,215112.00
2023-03-08T23:06:42.525Z,215066.00
2023-03-08T23:12:44.740Z,215090.00
2023-03-08T23:18:51.462Z,215044.00
2023-03-08T23:24:54.190Z,215016.00
2023-03-08T23:30:56.292Z,215022.00
2023-03-08T23:36:59.960Z,215058.00
2023-03-08T23:43:02.081Z,215022.00
2023-03-08T23:49:04.835Z,214980.00
2023-03-08T23:55:07.461Z,214952.00
